Time;durP1;ratioP1;P1;durP2;ratioP2;P2;SDS_P1;SDS_P2;PMS_P1;PMS_P2;Temp;Humidity;BMP_temperature;BMP_pressure;BME280_temperature;BME280_humidity;BME280_pressure;Samples;Min_cycle;Max_cycle;Signal;HPM_P1;HPM_P2
2023/06/24 00:01:02;;;;;;;7.32;4.75;;;;;;;23.65;56.23;99282.47;4961318;28;20122;-92
2023/06/24 00:03:31;;;;;;;7.85;5.20;;;;;;;23.68;55.78;99279.81;4957884;28;20133;-93
2023/06/24 00:05:57;;;;;;;6.25;4.80;;;;;;;23.71;55.56;99275.56;5000433;28;20037;-92
2023/06/24 00:08:22;;;;;;;5.18;4.20;;;;;;;23.74;55.01;99277.56;4983927;28;20025;-95
2023/06/24 00:10:49;;;;;;;7.15;4.40;;;;;;;23.73;54.61;99273.25;4983079;28;20472;-93
2023/06/24 00:13:17;;;;;;;5.72;4.00;;;;;;;23.77;54.50;99266.69;4983485;28;20060;-92
2023/06/24 00:15:45;;;;;;;7.32;4.40;;;;;;;23.79;54.15;99269.09;5016041;28;20033;-93
2023/06/24 00:18:11;;;;;;;7.88;3.72;;;;;;;23.84;54.22;99271.53;4983503;28;20030;-92
2023/06/24 00:20:37;;;;;;;5.95;4.32;;;;;;;23.84;54.07;99270.75;4996045;28;20064;-92
2023/06/24 00:23:03;;;;;;;7.15;3.92;;;;;;;23.83;53.61;99266.41;5006759;28;20463;-92
2023/06/24 00:25:29;;;;;;;10.60;5.18;;;;;;;23.70;56.54;99261.00;4992595;28;20065;-92
2023/06/24 00:27:55;;;;;;;6.68;5.20;;;;;;;23.60;58.47;99258.81;4971260;28;20040;-94
2023/06/24 00:30:21;;;;;;;8.55;5.50;;;;;;;23.50;59.04;99260.16;4984255;28;20026;-93
2023/06/24 00:32:48;;;;;;;5.78;4.43;;;;;;;23.55;56.64;99276.41;5000168;28;20040;-92
2023/06/24 00:35:14;;;;;;;7.55;4.22;;;;;;;23.53;55.36;99255.91;4983404;28;20029;-93
2023/06/24 00:37:39;;;;;;;5.13;4.13;;;;;;;23.56;55.54;99250.50;4983239;28;20036;-93
2023/06/24 00:40:06;;;;;;;6.68;4.60;;;;;;;23.53;55.69;99251.22;4970101;28;20506;-92
2023/06/24 00:42:33;;;;;;;8.48;5.28;;;;;;;23.54;60.19;99252.81;4966322;28;20037;-93
2023/06/24 00:44:58;;;;;;;8.82;5.68;;;;;;;23.27;62.96;99254.53;4992620;28;20036;-93
2023/06/24 00:47:23;;;;;;;8.25;5.60;;;;;;;23.13;62.96;99248.69;4965496;28;20056;-93
2023/06/24 00:49:50;;;;;;;7.57;5.70;;;;;;;22.96;63.65;99245.13;4964495;28;20026;-92
2023/06/24 00:52:17;;;;;;;7.28;5.97;;;;;;;22.88;64.35;99257.09;4979836;28;20022;-93
2023/06/24 00:54:44;;;;;;;10.38;5.30;;;;;;;22.65;64.58;99245.91;4998242;28;20126;-93
2023/06/24 00:57:09;;;;;;;7.53;5.55;;;;;;;22.59;64.37;99248.13;5008874;28;20503;-91
2023/06/24 00:59:35;;;;;;;9.32;5.60;;;;;;;22.53;64.62;99249.53;4975841;28;20034;-92
2023/06/24 01:02:01;;;;;;;10.10;6.43;;;;;;;22.35;65.34;99238.09;4962705;28;20057;-92
2023/06/24 01:04:27;;;;;;;7.85;5.60;;;;;;;22.35;64.86;99248.25;4962450;28;20053;-92
2023/06/24 01:06:53;;;;;;;7.15;5.43;;;;;;;22.32;65.05;99251.69;4963805;28;20122;-93
2023/06/24 01:09:19;;;;;;;7.97;5.60;;;;;;;22.26;64.77;99242.91;4995998;28;20126;-93
2023/06/24 01:11:45;;;;;;;10.23;5.63;;;;;;;22.15;64.83;99236.31;4979563;28;20022;-93
2023/06/24 01:14:11;;;;;;;7.75;5.88;;;;;;;22.09;64.90;99235.75;4978841;28;20057;-92
2023/06/24 01:16:45;;;;;;;8.85;5.35;;;;;;;22.14;64.56;99248.41;4963940;28;20488;-92
2023/06/24 01:19:38;;;;;;;9.32;6.03;;;;;;;22.16;64.61;99243.38;4979670;28;20030;-92
2023/06/24 01:22:21;;;;;;;9.10;5.43;;;;;;;22.17;63.87;99247.75;4968221;28;20124;-92
2023/06/24 01:25:22;;;;;;;7.20;5.22;;;;;;;22.23;64.09;99248.28;4995260;28;20408;-93
2023/06/24 01:28:31;;;;;;;7.45;5.40;;;;;;;22.05;64.66;99245.03;4997645;28;20019;-93
2023/06/24 01:31:16;;;;;;;8.75;5.82;;;;;;;21.93;65.23;99246.66;4949568;29;20042;-92
2023/06/24 01:33:47;;;;;;;7.50;5.40;;;;;;;21.93;65.02;99245.88;4943542;29;20031;-91
2023/06/24 01:36:13;;;;;;;9.52;5.70;;;;;;;21.82;65.20;99234.59;4981784;28;20042;-94
2023/06/24 01:38:44;;;;;;;7.82;5.47;;;;;;;21.78;65.94;99244.66;4969699;28;20041;-93
2023/06/24 01:41:11;;;;;;;7.65;5.20;;;;;;;21.75;66.26;99237.94;5002676;28;20108;-93
2023/06/24 01:43:39;;;;;;;6.45;5.13;;;;;;;21.74;66.05;99230.84;5002961;28;20060;-94
2023/06/24 01:46:05;;;;;;;8.15;5.55;;;;;;;21.67;66.30;99230.66;5001916;28;20037;-93
2023/06/24 01:48:56;;;;;;;7.22;5.15;;;;;;;21.64;65.61;99233.28;5002138;28;20038;-93
2023/06/24 01:51:23;;;;;;;6.40;4.95;;;;;;;21.50;66.28;99228.16;4963098;28;20047;-93
2023/06/24 01:53:54;;;;;;;9.27;5.07;;;;;;;21.46;65.57;99236.28;4977215;28;20023;-88
2023/06/24 01:56:21;;;;;;;7.75;4.85;;;;;;;21.53;65.30;99231.00;4959681;28;20077;-88
2023/06/24 01:58:50;;;;;;;6.03;5.28;;;;;;;21.39;66.30;99233.28;4944747;28;20425;-87
2023/06/24 02:01:15;;;;;;;10.02;4.80;;;;;;;21.31;66.19;99232.28;4944193;28;20042;-88
2023/06/24 02:03:41;;;;;;;7.65;4.93;;;;;;;21.28;65.98;99229.41;4943543;28;20085;-88
2023/06/24 02:06:09;;;;;;;8.75;5.15;;;;;;;21.22;64.78;99228.06;4944109;28;20030;-89
2023/06/24 02:08:35;;;;;;;6.80;5.10;;;;;;;21.23;65.41;99219.50;4942098;28;20027;-88
2023/06/24 02:11:02;;;;;;;9.25;5.25;;;;;;;21.24;65.70;99234.00;4932377;28;20118;-88
2023/06/24 02:13:28;;;;;;;6.68;5.20;;;;;;;21.22;65.64;99233.53;4964239;28;20033;-88
2023/06/24 02:15:54;;;;;;;6.78;5.55;;;;;;;21.27;66.39;99234.09;4950563;28;20111;-88
2023/06/24 02:18:19;;;;;;;6.72;5.70;;;;;;;21.28;66.52;99245.84;4927224;29;20048;-88
2023/06/24 02:20:46;;;;;;;9.93;5.85;;;;;;;21.31;66.43;99242.41;4925736;29;20027;-87
2023/06/24 02:23:13;;;;;;;9.30;6.00;;;;;;;21.29;66.92;99247.44;4978098;28;20037;-88
2023/06/24 02:25:41;;;;;;;8.77;5.95;;;;;;;21.20;67.03;99253.03;4966762;28;20030;-88
2023/06/24 02:28:07;;;;;;;8.73;5.78;;;;;;;21.35;66.84;99249.63;4967034;28;20068;-88
2023/06/24 02:30:34;;;;;;;7.30;5.25;;;;;;;21.24;67.63;99253.16;4983345;28;20026;-88
2023/06/24 02:32:59;;;;;;;7.97;5.95;;;;;;;21.33;67.32;99262.88;4965517;28;20108;-88
2023/06/24 02:35:25;;;;;;;7.60;5.40;;;;;;;21.27;67.69;99252.47;4966957;28;20052;-88
2023/06/24 02:37:51;;;;;;;10.57;6.15;;;;;;;21.31;67.92;99267.88;4983000;28;20030;-88
2023/06/24 02:40:17;;;;;;;10.23;5.82;;;;;;;21.29;67.97;99266.59;4983272;28;20511;-88
2023/06/24 02:42:42;;;;;;;8.10;5.97;;;;;;;21.31;68.36;99267.06;4982960;28;20052;-88
2023/06/24 02:45:08;;;;;;;9.23;5.28;;;;;;;21.29;67.89;99277.56;4983424;28;20454;-88
2023/06/24 02:47:34;;;;;;;6.70;5.43;;;;;;;21.28;68.29;99278.72;4966656;28;20041;-87
2023/06/24 02:50:00;;;;;;;8.73;5.88;;;;;;;21.23;67.91;99281.66;4982359;28;20037;-88
2023/06/24 02:52:28;;;;;;;7.93;5.60;;;;;;;21.19;65.23;99285.09;4998926;28;20042;-88
2023/06/24 02:54:56;;;;;;;8.18;5.45;;;;;;;21.15;66.11;99281.44;4967216;28;20033;-88
2023/06/24 02:57:22;;;;;;;9.02;5.72;;;;;;;21.17;66.91;99279.16;4982330;28;20415;-88
2023/06/24 02:59:47;;;;;;;8.73;5.88;;;;;;;21.18;67.61;99278.00;4964442;28;20034;-88
2023/06/24 03:02:26;;;;;;;8.45;5.57;;;;;;;21.19;66.21;99267.88;4993948;28;20100;-88
2023/06/24 03:04:52;;;;;;;8.93;5.53;;;;;;;21.17;65.89;99278.38;4960979;28;20050;-88
2023/06/24 03:07:20;;;;;;;7.95;5.95;;;;;;;21.24;66.21;99277.81;4965896;28;20384;-88
2023/06/24 03:09:46;;;;;;;7.95;5.50;;;;;;;21.16;66.54;99271.28;4998756;28;20030;-88
2023/06/24 03:12:12;;;;;;;8.10;5.97;;;;;;;21.31;66.64;99286.22;4983240;28;20483;-88
2023/06/24 03:14:39;;;;;;;9.38;5.80;;;;;;;21.23;67.56;99287.97;4966179;28;20028;-88
2023/06/24 03:17:08;;;;;;;6.93;5.80;;;;;;;21.21;68.26;99290.25;4996548;28;20042;-88
2023/06/24 03:19:34;;;;;;;10.57;5.53;;;;;;;21.20;67.71;99281.22;4998406;28;20017;-88
2023/06/24 03:21:59;;;;;;;8.95;5.93;;;;;;;21.27;67.04;99296.28;4982207;28;20451;-88
2023/06/24 03:24:26;;;;;;;9.35;5.05;;;;;;;21.31;66.93;99300.75;4982485;28;20124;-88
2023/06/24 03:26:56;;;;;;;7.22;5.43;;;;;;;21.35;67.22;99309.06;4998949;28;20037;-88
2023/06/24 03:29:25;;;;;;;6.13;5.32;;;;;;;21.41;66.89;99307.69;4999887;28;20026;-88
2023/06/24 03:31:51;;;;;;;8.82;5.32;;;;;;;21.37;67.43;99304.84;4966131;28;20022;-88
2023/06/24 03:34:17;;;;;;;11.05;6.10;;;;;;;21.38;66.67;99306.44;4997964;28;20034;-88
2023/06/24 03:36:43;;;;;;;9.50;6.10;;;;;;;21.33;66.48;99297.66;4982222;28;20037;-88
2023/06/24 03:39:10;;;;;;;8.32;5.60;;;;;;;21.39;64.99;99299.84;4981711;28;20132;-88
2023/06/24 03:41:37;;;;;;;6.53;5.50;;;;;;;21.42;64.01;99303.03;4996793;28;20558;-88
2023/06/24 03:44:02;;;;;;;8.85;5.22;;;;;;;21.44;64.18;99309.00;4982318;28;20041;-88
2023/06/24 03:46:32;;;;;;;6.03;4.82;;;;;;;21.48;63.24;99313.44;4964793;28;20029;-88
2023/06/24 03:48:58;;;;;;;8.35;4.93;;;;;;;21.49;62.60;99315.03;4982096;28;20060;-88
2023/06/24 03:51:24;;;;;;;6.95;4.60;;;;;;;21.48;61.54;99316.19;4981208;28;20120;-88
2023/06/24 03:53:51;;;;;;;13.68;5.72;;;;;;;21.52;63.40;99319.00;4981681;28;20071;-88
2023/06/24 03:56:17;;;;;;;9.02;4.85;;;;;;;21.54;61.19;99325.78;4982255;28;20474;-88
2023/06/24 03:58:43;;;;;;;6.30;4.50;;;;;;;21.56;60.61;99323.50;4997329;28;20474;-88
2023/06/24 04:01:09;;;;;;;10.18;5.32;;;;;;;21.64;61.09;99326.44;4981291;28;20046;-88
2023/06/24 04:03:35;;;;;;;5.72;4.70;;;;;;;21.67;61.45;99315.59;4965830;28;20141;-88
2023/06/24 04:06:04;;;;;;;10.98;5.53;;;;;;;21.77;61.53;99312.38;4965459;28;20014;-88
2023/06/24 04:08:29;;;;;;;10.95;5.15;;;;;;;21.87;61.07;99318.53;4982217;28;20087;-88
2023/06/24 04:10:56;;;;;;;7.70;5.05;;;;;;;22.02;60.05;99317.00;4965520;28;20417;-87
2023/06/24 04:13:22;;;;;;;11.85;4.80;;;;;;;22.14;61.80;99326.03;4981298;28;20503;-88
2023/06/24 04:15:50;;;;;;;8.02;5.43;;;;;;;22.20;60.63;99323.81;4978592;28;20019;-89
2023/06/24 04:18:16;;;;;;;10.85;5.40;;;;;;;22.30;62.46;99314.34;4997636;28;20080;-91
2023/06/24 04:20:43;;;;;;;7.85;5.50;;;;;;;22.34;62.62;99313.28;4982693;28;20109;-91
2023/06/24 04:23:10;;;;;;;6.57;5.20;;;;;;;22.47;61.96;99330.50;4966239;28;20065;-90
2023/06/24 04:25:36;;;;;;;6.75;5.05;;;;;;;22.57;62.66;99324.50;4997706;28;20022;-88
2023/06/24 04:28:02;;;;;;;8.45;5.22;;;;;;;22.58;62.35;99323.38;4964963;28;20021;-88
2023/06/24 04:30:28;;;;;;;10.88;5.57;;;;;;;22.65;62.04;99328.25;4971112;28;20023;-88
2023/06/24 04:32:54;;;;;;;7.88;5.50;;;;;;;22.67;62.89;99342.44;4997960;28;20129;-87
2023/06/24 04:35:20;;;;;;;7.03;5.40;;;;;;;22.66;63.21;99340.03;4981137;28;20018;-88
2023/06/24 04:37:46;;;;;;;8.35;5.00;;;;;;;22.75;62.13;99348.91;4997829;28;20042;-88
2023/06/24 04:40:13;;;;;;;7.40;4.40;;;;;;;22.77;59.55;99341.91;4981639;28;20400;-88
2023/06/24 04:42:39;;;;;;;8.98;4.80;;;;;;;22.88;56.14;99350.44;4980569;28;20025;-88
2023/06/24 04:45:05;;;;;;;7.00;4.65;;;;;;;22.91;55.74;99343.44;4988246;28;20504;-88
2023/06/24 04:47:31;;;;;;;6.53;4.63;;;;;;;22.97;54.62;99342.03;4964995;28;20029;-88
2023/06/24 04:49:57;;;;;;;7.38;4.38;;;;;;;23.08;54.89;99343.16;4977099;28;20026;-88
2023/06/24 04:52:26;;;;;;;6.35;4.88;;;;;;;23.18;56.29;99341.84;4962415;28;20049;-88
2023/06/24 04:54:51;;;;;;;10.00;4.10;;;;;;;23.31;55.58;99343.34;4982605;28;20033;-88
2023/06/24 04:57:27;;;;;;;9.07;4.35;;;;;;;23.35;55.36;99335.97;4963934;28;20045;-88
2023/06/24 04:59:53;;;;;;;11.48;4.43;;;;;;;23.42;55.70;99340.84;4981750;28;20022;-87
2023/06/24 05:02:19;;;;;;;8.43;5.00;;;;;;;23.49;56.33;99341.03;4982983;28;20374;-88
2023/06/24 05:04:46;;;;;;;12.68;6.78;;;;;;;23.55;55.48;99333.28;4998437;28;20050;-88
2023/06/24 05:07:12;;;;;;;8.75;4.55;;;;;;;23.64;53.91;99335.84;5019554;28;20076;-88
2023/06/24 05:09:37;;;;;;;7.07;4.40;;;;;;;23.67;53.23;99335.94;5001742;28;20476;-88
2023/06/24 05:12:26;;;;;;;7.82;4.80;;;;;;;23.76;52.45;99338.50;4985420;28;20088;-88
2023/06/24 05:14:52;;;;;;;10.05;5.00;;;;;;;23.90;51.86;99338.84;4961244;28;20129;-88
2023/06/24 05:17:19;;;;;;;9.18;5.68;;;;;;;23.97;52.04;99343.72;4961458;28;20130;-88
2023/06/24 05:19:44;;;;;;;9.52;4.75;;;;;;;24.08;52.37;99342.00;4961230;28;20030;-87
2023/06/24 05:22:10;;;;;;;7.05;4.78;;;;;;;24.11;51.20;99343.22;4960216;28;20092;-88
2023/06/24 05:24:37;;;;;;;7.90;4.50;;;;;;;24.21;50.28;99328.91;4961783;28;20045;-88
2023/06/24 05:27:06;;;;;;;11.32;5.78;;;;;;;24.46;50.32;99328.63;4961150;28;20041;-88
2023/06/24 05:29:33;;;;;;;6.68;4.75;;;;;;;24.64;49.42;99338.06;4961711;28;20122;-88
2023/06/24 05:31:59;;;;;;;5.45;3.50;;;;;;;24.71;48.50;99329.13;4946323;28;20085;-87
2023/06/24 05:34:26;;;;;;;7.35;4.00;;;;;;;24.80;47.93;99321.44;4959571;28;20038;-88
2023/06/24 05:36:52;;;;;;;5.65;4.10;;;;;;;24.88;48.00;99333.38;4968955;28;20035;-89
2023/06/24 05:39:18;;;;;;;11.43;4.32;;;;;;;24.85;49.54;99334.13;4949478;29;20497;-87
2023/06/24 05:41:44;;;;;;;6.88;4.25;;;;;;;24.98;48.45;99341.03;4951546;29;20019;-88
2023/06/24 05:44:11;;;;;;;5.95;4.38;;;;;;;25.00;49.18;99330.44;4973638;28;20205;-88
2023/06/24 05:46:36;;;;;;;9.68;4.53;;;;;;;24.93;49.28;99331.13;4992830;28;20071;-88
2023/06/24 05:49:02;;;;;;;7.70;4.57;;;;;;;25.05;48.40;99321.06;5003147;28;20061;-87
2023/06/24 05:51:28;;;;;;;7.55;4.20;;;;;;;25.27;47.91;99325.03;4990196;28;20034;-88
2023/06/24 05:53:54;;;;;;;7.75;3.95;;;;;;;25.38;47.92;99328.75;5008324;28;20053;-88
2023/06/24 05:56:20;;;;;;;7.93;4.00;;;;;;;25.31;47.47;99320.38;4998246;28;20026;-88
2023/06/24 05:58:46;;;;;;;6.28;4.05;;;;;;;25.31;47.85;99326.69;5000511;28;20030;-87
2023/06/24 06:01:11;;;;;;;9.27;4.38;;;;;;;25.46;48.28;99326.91;5000910;28;20030;-88
2023/06/24 06:03:43;;;;;;;9.90;4.53;;;;;;;25.59;49.26;99323.59;5005335;28;20057;-88
2023/06/24 06:06:09;;;;;;;6.63;4.25;;;;;;;25.77;48.47;99326.63;4980878;28;20034;-88
2023/06/24 06:08:35;;;;;;;5.53;4.75;;;;;;;25.88;48.79;99320.44;4982826;28;20581;-88
2023/06/24 06:11:03;;;;;;;6.03;4.50;;;;;;;25.94;50.24;99328.06;4981999;28;20415;-88
2023/06/24 06:13:31;;;;;;;6.57;4.40;;;;;;;26.02;49.48;99317.91;4999664;28;20075;-88
2023/06/24 06:15:57;;;;;;;7.18;4.47;;;;;;;26.09;48.95;99315.25;4966776;28;20069;-88
2023/06/24 06:18:23;;;;;;;8.35;4.38;;;;;;;26.18;49.11;99314.97;4966596;28;20093;-88
2023/06/24 06:20:50;;;;;;;5.90;4.18;;;;;;;26.18;49.21;99315.75;4998923;28;20033;-87
2023/06/24 06:23:17;;;;;;;6.05;4.25;;;;;;;26.32;49.34;99323.41;4982635;28;20116;-88
2023/06/24 06:25:44;;;;;;;7.57;4.38;;;;;;;26.41;49.96;99326.66;4999039;28;20484;-87
2023/06/24 06:28:09;;;;;;;7.90;4.40;;;;;;;26.55;49.07;99328.03;4982288;28;20033;-87
2023/06/24 06:30:35;;;;;;;6.25;4.45;;;;;;;26.51;48.99;99318.91;4968510;28;20030;-87
2023/06/24 06:33:02;;;;;;;6.93;4.25;;;;;;;26.67;48.10;99319.50;4982839;28;20030;-87
2023/06/24 06:35:28;;;;;;;6.65;4.85;;;;;;;26.70;47.72;99327.03;4965796;28;20030;-88
2023/06/24 06:37:54;;;;;;;6.50;4.60;;;;;;;26.86;47.89;99320.50;4999943;28;20547;-87
2023/06/24 06:40:22;;;;;;;5.38;3.80;;;;;;;26.90;47.58;99319.34;4982412;28;20022;-88
2023/06/24 06:42:49;;;;;;;5.70;3.90;;;;;;;26.87;47.10;99333.13;4983178;28;20025;-88
2023/06/24 06:45:14;;;;;;;6.03;4.35;;;;;;;27.01;47.03;99331.28;4985492;28;20068;-88
2023/06/24 06:47:43;;;;;;;8.32;4.50;;;;;;;27.14;46.94;99325.47;4966617;28;20018;-88
2023/06/24 06:50:09;;;;;;;6.53;4.18;;;;;;;27.30;46.35;99334.34;4968056;28;20092;-88
2023/06/24 06:52:36;;;;;;;7.40;4.10;;;;;;;27.46;45.93;99338.81;4966955;28;20034;-87
2023/06/24 06:55:01;;;;;;;4.85;4.30;;;;;;;27.53;45.22;99320.28;4984301;28;20423;-88
2023/06/24 06:57:27;;;;;;;7.13;4.28;;;;;;;27.64;45.26;99314.81;4966040;28;20026;-88
2023/06/24 06:59:53;;;;;;;6.13;4.30;;;;;;;27.81;45.63;99313.38;4982082;28;20022;-88
2023/06/24 07:02:18;;;;;;;6.70;4.18;;;;;;;28.04;44.85;99317.84;4982524;28;20073;-88
2023/06/24 07:04:44;;;;;;;10.88;4.60;;;;;;;28.05;44.48;99295.31;4966410;28;20144;-87
2023/06/24 07:07:10;;;;;;;5.93;4.20;;;;;;;28.18;44.50;99299.34;4966758;28;20014;-87
2023/06/24 07:09:39;;;;;;;6.00;4.07;;;;;;;28.30;43.50;99306.50;4966242;28;20030;-89
2023/06/24 07:12:06;;;;;;;12.52;9.02;;;;;;;28.26;43.88;99302.91;4999257;28;20018;-88
2023/06/24 07:14:32;;;;;;;5.32;4.57;;;;;;;28.44;43.46;99304.97;4967714;28;20029;-92
2023/06/24 07:16:57;;;;;;;4.88;4.38;;;;;;;28.69;43.14;99316.16;4966563;28;20041;-88
2023/06/24 07:19:24;;;;;;;6.00;4.28;;;;;;;28.68;42.91;99297.91;4983622;28;20497;-88
2023/06/24 07:21:51;;;;;;;6.50;4.68;;;;;;;28.79;42.66;99313.41;5000450;28;20116;-90
2023/06/24 07:24:17;;;;;;;6.88;4.30;;;;;;;28.69;43.28;99297.53;4967835;28;20056;-90
2023/06/24 07:26:45;;;;;;;6.97;4.22;;;;;;;28.86;43.21;99309.06;4985876;28;20049;-88
2023/06/24 07:29:11;;;;;;;8.75;4.50;;;;;;;28.99;43.42;99315.78;4987603;28;20563;-88
2023/06/24 07:31:37;;;;;;;9.73;4.20;;;;;;;28.87;44.00;99305.09;4982986;28;20454;-89
2023/06/24 07:34:04;;;;;;;7.82;4.63;;;;;;;28.94;43.40;99302.31;4984346;28;20028;-88
2023/06/24 07:36:30;;;;;;;5.25;4.13;;;;;;;29.06;43.80;99290.84;4983960;28;20070;-89
2023/06/24 07:38:59;;;;;;;7.22;4.22;;;;;;;29.25;42.56;99298.00;4970154;28;20061;-91
2023/06/24 07:41:24;;;;;;;4.57;4.07;;;;;;;29.25;42.37;99286.91;4969843;28;20488;-88
2023/06/24 07:43:50;;;;;;;6.95;4.25;;;;;;;29.40;42.60;99294.03;4970205;28;20041;-88
2023/06/24 07:46:15;;;;;;;8.52;4.63;;;;;;;29.39;42.80;99295.22;4974858;28;20037;-92
2023/06/24 07:48:41;;;;;;;5.50;4.22;;;;;;;29.60;42.81;99299.94;4965969;28;20061;-89
2023/06/24 07:51:06;;;;;;;10.43;6.30;;;;;;;29.72;42.37;99301.56;4983268;28;20088;-88
2023/06/24 07:53:33;;;;;;;8.88;4.60;;;;;;;29.80;40.96;99285.66;4984883;28;20025;-89
2023/06/24 07:55:59;;;;;;;4.97;3.72;;;;;;;29.89;40.27;99288.81;4983943;28;20038;-88
2023/06/24 07:58:24;;;;;;;5.82;4.20;;;;;;;30.02;41.17;99291.94;4968758;28;20408;-87
2023/06/24 08:00:50;;;;;;;7.00;4.78;;;;;;;30.13;41.23;99300.22;4982943;28;20040;-87
2023/06/24 08:03:15;;;;;;;6.00;4.43;;;;;;;30.12;40.47;99298.66;4980287;28;20065;-88
2023/06/24 08:05:41;;;;;;;5.75;4.15;;;;;;;30.06;39.91;99283.59;4981168;28;20101;-88
2023/06/24 08:08:07;;;;;;;7.35;4.40;;;;;;;30.07;40.25;99287.94;4980482;28;20018;-92
2023/06/24 08:10:33;;;;;;;6.68;4.40;;;;;;;30.07;40.60;99296.28;4964037;28;20028;-88
2023/06/24 08:12:58;;;;;;;7.35;4.75;;;;;;;30.16;39.96;99294.66;4962480;28;20018;-88
2023/06/24 08:15:24;;;;;;;4.53;3.95;;;;;;;30.23;39.08;99286.28;4981572;28;20026;-96
2023/06/24 08:17:58;;;;;;;5.22;4.70;;;;;;;30.18;40.42;99289.50;4969051;28;20022;-94
2023/06/24 08:20:23;;;;;;;6.10;4.45;;;;;;;30.09;39.63;99282.78;5002276;28;20037;-94
2023/06/24 08:22:49;;;;;;;8.73;5.78;;;;;;;30.24;39.66;99284.31;5000866;28;20053;-94
2023/06/24 08:25:15;;;;;;;19.48;14.00;;;;;;;30.32;39.21;99288.69;4967892;28;20125;-96
2023/06/24 08:27:40;;;;;;;7.20;5.20;;;;;;;30.42;39.56;99282.28;4981738;28;20018;-96
2023/06/24 08:30:06;;;;;;;5.35;4.43;;;;;;;30.50;38.85;99279.44;4982867;28;20428;-95
2023/06/24 08:32:35;;;;;;;6.35;4.72;;;;;;;30.66;38.74;99282.53;4967631;28;20057;-95
2023/06/24 08:35:00;;;;;;;6.18;4.20;;;;;;;30.71;36.77;99282.06;4969071;28;20563;-95
2023/06/24 08:37:26;;;;;;;4.25;3.72;;;;;;;30.77;37.38;99272.09;4984078;28;20046;-95
2023/06/24 08:39:51;;;;;;;6.47;4.00;;;;;;;30.86;36.08;99257.78;4967751;28;20023;-95
2023/06/24 08:42:17;;;;;;;6.78;4.47;;;;;;;31.11;36.31;99279.84;4983254;28;20027;-95
2023/06/24 08:44:43;;;;;;;5.55;4.25;;;;;;;31.00;35.51;99263.25;4967086;28;20029;-91
2023/06/24 08:47:08;;;;;;;5.07;4.25;;;;;;;31.10;35.40;99274.69;4969697;28;20037;-91
2023/06/24 08:49:44;;;;;;;5.40;4.45;;;;;;;31.12;34.18;99286.97;4966488;28;20054;-90
2023/06/24 08:52:14;;;;;;;5.88;4.68;;;;;;;31.13;35.27;99287.75;4967521;28;20037;-91
2023/06/24 08:54:40;;;;;;;7.03;3.97;;;;;;;31.20;36.06;99282.94;4965702;28;20089;-91
2023/06/24 08:57:07;;;;;;;5.32;4.00;;;;;;;31.11;36.08;99284.59;4965962;28;20038;-90
2023/06/24 08:59:36;;;;;;;5.80;4.18;;;;;;;31.19;35.41;99289.72;4982823;28;20030;-91
2023/06/24 09:02:05;;;;;;;5.72;4.55;;;;;;;31.24;36.50;99290.47;4966714;28;20068;-91
2023/06/24 09:04:40;;;;;;;4.93;4.22;;;;;;;31.27;36.83;99287.63;4984111;28;20121;-90
2023/06/24 09:07:05;;;;;;;6.30;4.10;;;;;;;31.16;34.68;99276.59;4985512;28;20026;-90
2023/06/24 09:09:31;;;;;;;6.53;4.15;;;;;;;31.30;34.03;99302.75;4982045;28;20022;-91
2023/06/24 09:11:58;;;;;;;4.88;3.83;;;;;;;31.09;34.71;99281.44;4981249;28;20034;-91
2023/06/24 09:14:24;;;;;;;8.65;6.00;;;;;;;31.14;33.72;99276.22;4965851;28;20018;-92
2023/06/24 09:17:01;;;;;;;7.25;4.15;;;;;;;31.21;34.05;99275.38;4965737;28;20022;-91
2023/06/24 09:19:36;;;;;;;6.35;4.00;;;;;;;31.27;33.86;99281.28;4966457;28;20121;-92
2023/06/24 09:22:16;;;;;;;5.43;4.38;;;;;;;31.41;34.82;99281.94;4967708;28;20034;-92
2023/06/24 09:24:41;;;;;;;5.83;4.53;;;;;;;31.45;34.29;99275.59;4980628;28;20022;-90
2023/06/24 09:27:07;;;;;;;6.43;4.57;;;;;;;31.45;33.94;99270.81;4964385;28;20021;-90
2023/06/24 09:29:34;;;;;;;6.80;4.22;;;;;;;31.60;34.19;99283.38;4963939;28;20026;-91
2023/06/24 09:32:00;;;;;;;5.30;4.22;;;;;;;31.59;34.22;99278.22;4964143;28;20080;-91
2023/06/24 09:34:26;;;;;;;5.50;3.85;;;;;;;31.65;33.41;99282.16;4963903;28;20030;-91
2023/06/24 09:36:53;;;;;;;6.28;4.18;;;;;;;31.59;33.77;99283.81;4963218;28;20027;-91
2023/06/24 09:39:18;;;;;;;4.45;3.60;;;;;;;31.80;33.65;99280.00;4963836;28;20090;-92
2023/06/24 09:41:49;;;;;;;5.93;4.07;;;;;;;31.80;33.70;99277.22;4962596;28;20046;-92
2023/06/24 09:44:15;;;;;;;10.90;3.88;;;;;;;31.77;33.69;99267.69;4964304;28;20037;-92
2023/06/24 09:46:40;;;;;;;4.72;3.72;;;;;;;31.96;32.79;99271.84;4963011;28;20094;-90
2023/06/24 09:49:06;;;;;;;7.82;4.13;;;;;;;32.08;34.96;99278.09;4963245;28;20026;-89
2023/06/24 09:51:34;;;;;;;5.18;4.13;;;;;;;32.11;32.80;99266.91;4983024;28;20455;-90
2023/06/24 09:54:01;;;;;;;8.55;3.88;;;;;;;32.04;33.15;99250.28;4968360;28;20029;-91
2023/06/24 09:56:26;;;;;;;6.45;4.03;;;;;;;32.11;33.88;99260.56;4968991;28;20114;-91
2023/06/24 09:58:52;;;;;;;5.95;4.13;;;;;;;32.15;34.66;99245.38;4968499;28;20089;-91
2023/06/24 10:01:17;;;;;;;5.35;4.07;;;;;;;32.22;33.53;99247.25;4967729;28;20003;-92
2023/06/24 10:03:43;;;;;;;7.53;3.90;;;;;;;32.40;33.71;99244.25;4966607;28;20050;-92
2023/06/24 10:06:08;;;;;;;4.30;3.80;;;;;;;32.46;34.24;99241.75;4967400;28;20026;-92
2023/06/24 10:08:34;;;;;;;6.72;4.30;;;;;;;32.60;34.40;99236.00;4969926;28;20026;-91
2023/06/24 10:11:00;;;;;;;4.28;3.88;;;;;;;32.51;34.58;99235.72;4969225;28;20084;-92
2023/06/24 10:13:26;;;;;;;5.47;4.20;;;;;;;32.46;34.45;99236.16;4968977;28;20121;-91
2023/06/24 10:15:51;;;;;;;4.78;4.10;;;;;;;32.56;36.03;99235.25;4968413;28;20029;-91
2023/06/24 10:18:36;;;;;;;9.05;4.10;;;;;;;32.64;35.34;99233.94;4970547;28;20018;-91
2023/06/24 10:21:04;;;;;;;4.50;3.45;;;;;;;32.51;35.24;99228.13;4972865;28;20084;-91
2023/06/24 10:23:34;;;;;;;5.70;4.32;;;;;;;32.50;35.89;99222.97;4972015;28;20045;-91
2023/06/24 10:25:59;;;;;;;7.05;4.00;;;;;;;32.66;34.61;99214.78;4971089;28;20019;-91
2023/06/24 10:28:25;;;;;;;5.18;4.20;;;;;;;32.72;33.51;99207.53;4968728;28;20427;-90
2023/06/24 10:30:56;;;;;;;6.82;3.67;;;;;;;32.90;33.21;99200.88;4969496;28;20030;-90
2023/06/24 10:33:23;;;;;;;5.30;4.15;;;;;;;32.70;33.30;99186.84;4971565;28;20018;-88
2023/06/24 10:35:51;;;;;;;4.90;3.67;;;;;;;32.78;34.16;99203.03;4971725;28;20021;-91
2023/06/24 10:38:17;;;;;;;6.35;4.13;;;;;;;32.78;33.66;99191.09;4974176;28;20480;-92
2023/06/24 10:40:43;;;;;;;6.35;4.13;;;;;;;32.81;33.81;99196.63;4969588;28;20022;-92
2023/06/24 10:43:24;;;;;;;5.03;3.97;;;;;;;32.99;33.34;99213.03;4968996;28;20030;-90
2023/06/24 10:45:50;;;;;;;4.32;3.85;;;;;;;33.08;32.95;99215.34;5000569;28;20034;-90
2023/06/24 10:48:16;;;;;;;6.47;3.72;;;;;;;33.04;33.61;99203.41;4967128;28;20062;-90
2023/06/24 10:50:41;;;;;;;5.43;4.40;;;;;;;32.99;33.40;99212.25;4983022;28;20472;-90
2023/06/24 10:53:08;;;;;;;8.23;4.18;;;;;;;32.98;33.64;99210.69;4967299;28;20053;-88
2023/06/24 10:55:33;;;;;;;9.25;4.15;;;;;;;32.86;33.85;99195.34;4966319;28;20121;-89
2023/06/24 10:58:13;;;;;;;4.80;4.03;;;;;;;32.98;34.26;99205.13;4966067;28;20105;-90
2023/06/24 11:00:39;;;;;;;6.93;4.47;;;;;;;33.05;33.97;99193.03;4968212;28;20022;-94
2023/06/24 11:03:11;;;;;;;7.03;4.30;;;;;;;33.23;32.59;99201.91;4999094;28;20054;-92
2023/06/24 11:05:44;;;;;;;6.28;4.40;;;;;;;33.34;32.61;99202.47;4998631;28;20028;-94
2023/06/24 11:08:09;;;;;;;5.85;4.03;;;;;;;33.31;33.10;99208.13;4966106;28;20076;-93
2023/06/24 11:10:48;;;;;;;7.30;3.85;;;;;;;33.17;33.13;99201.59;4982883;28;20657;-93
2023/06/24 11:13:13;;;;;;;5.28;4.38;;;;;;;33.31;33.16;99196.97;4965272;28;20035;-90
2023/06/24 11:15:40;;;;;;;6.60;4.50;;;;;;;33.11;32.28;99191.38;4965465;28;20030;-90
2023/06/24 11:18:08;;;;;;;4.88;3.85;;;;;;;33.10;32.99;99196.16;4965192;28;20034;-89
2023/06/24 11:20:33;;;;;;;5.35;4.25;;;;;;;33.13;32.75;99200.09;4965966;28;20536;-89
2023/06/24 11:22:59;;;;;;;5.03;3.95;;;;;;;33.33;30.98;99194.53;4964481;28;20027;-89
2023/06/24 11:25:24;;;;;;;4.22;3.78;;;;;;;33.28;31.11;99189.44;4963345;28;20023;-90
2023/06/24 11:27:52;;;;;;;6.45;3.60;;;;;;;33.42;30.24;99206.72;4964528;28;20018;-90
2023/06/24 11:30:17;;;;;;;5.57;3.75;;;;;;;33.33;30.41;99192.53;4964911;28;20121;-91
2023/06/24 11:32:48;;;;;;;8.73;3.80;;;;;;;33.01;31.31;99196.66;4964840;28;20026;-91